sensor_id;sensor_type;location;lat;lon;timestamp;P1;durP1;ratioP1;P2;durP2;ratioP2
20170;SDS011;10245;51.344;6.620;2023-08-01T00:01:53;0.70;;;0.70;;
20170;SDS011;10245;51.344;6.620;2023-08-01T00:04:16;1.25;;;0.68;;
20170;SDS011;10245;51.344;6.620;2023-08-01T00:06:42;0.95;;;0.50;;
20170;SDS011;10245;51.344;6.620;2023-08-01T00:09:17;0.60;;;0.60;;
20170;SDS011;10245;51.344;6.620;2023-08-01T00:12:01;1.60;;;0.57;;
20170;SDS011;10245;51.344;6.620;2023-08-01T00:15:04;0.85;;;0.60;;
20170;SDS011;10245;51.344;6.620;2023-08-01T00:17:44;3.50;;;0.70;;
20170;SDS011;10245;51.344;6.620;2023-08-01T00:20:13;1.15;;;0.73;;
20170;SDS011;10245;51.344;6.620;2023-08-01T00:22:47;1.58;;;0.60;;
20170;SDS011;10245;51.344;6.620;2023-08-01T00:25:32;1.30;;;0.75;;
20170;SDS011;10245;51.344;6.620;2023-08-01T00:28:12;2.13;;;0.90;;
20170;SDS011;10245;51.344;6.620;2023-08-01T00:31:03;1.50;;;0.60;;
20170;SDS011;10245;51.344;6.620;2023-08-01T00:33:46;1.58;;;0.75;;
20170;SDS011;10245;51.344;6.620;2023-08-01T00:36:34;1.10;;;1.00;;
20170;SDS011;10245;51.344;6.620;2023-08-01T00:39:21;2.60;;;1.10;;
20170;SDS011;10245;51.344;6.620;2023-08-01T00:41:59;1.25;;;0.90;;
20170;SDS011;10245;51.344;6.620;2023-08-01T00:44:27;1.48;;;0.90;;
20170;SDS011;10245;51.344;6.620;2023-08-01T00:47:05;1.25;;;1.00;;
20170;SDS011;10245;51.344;6.620;2023-08-01T00:49:46;3.42;;;0.93;;
20170;SDS011;10245;51.344;6.620;2023-08-01T00:52:23;2.67;;;1.00;;
20170;SDS011;10245;51.344;6.620;2023-08-01T00:55:05;4.15;;;1.52;;
20170;SDS011;10245;51.344;6.620;2023-08-01T00:57:56;1.20;;;0.98;;
20170;SDS011;10245;51.344;6.620;2023-08-01T01:00:52;2.88;;;1.20;;
20170;SDS011;10245;51.344;6.620;2023-08-01T01:03:26;1.85;;;1.40;;
20170;SDS011;10245;51.344;6.620;2023-08-01T01:05:57;2.25;;;1.20;;
20170;SDS011;10245;51.344;6.620;2023-08-01T01:08:44;4.15;;;1.42;;
20170;SDS011;10245;51.344;6.620;2023-08-01T01:11:26;2.10;;;1.55;;
20170;SDS011;10245;51.344;6.620;2023-08-01T01:14:13;2.53;;;1.45;;
20170;SDS011;10245;51.344;6.620;2023-08-01T01:16:48;1.73;;;1.33;;
20170;SDS011;10245;51.344;6.620;2023-08-01T01:19:36;2.97;;;1.33;;
20170;SDS011;10245;51.344;6.620;2023-08-01T01:22:27;1.38;;;1.13;;
20170;SDS011;10245;51.344;6.620;2023-08-01T01:25:14;1.90;;;1.40;;
20170;SDS011;10245;51.344;6.620;2023-08-01T01:27:50;2.65;;;1.30;;
20170;SDS011;10245;51.344;6.620;2023-08-01T01:30:36;1.88;;;1.50;;
20170;SDS011;10245;51.344;6.620;2023-08-01T01:33:20;2.00;;;1.40;;
20170;SDS011;10245;51.344;6.620;2023-08-01T01:36:02;2.80;;;1.45;;
20170;SDS011;10245;51.344;6.620;2023-08-01T01:39:10;3.72;;;1.52;;
20170;SDS011;10245;51.344;6.620;2023-08-01T01:42:00;1.60;;;1.50;;
20170;SDS011;10245;51.344;6.620;2023-08-01T01:44:44;3.78;;;1.70;;
20170;SDS011;10245;51.344;6.620;2023-08-01T01:47:33;2.40;;;1.88;;
20170;SDS011;10245;51.344;6.620;2023-08-01T01:50:10;3.35;;;2.17;;
20170;SDS011;10245;51.344;6.620;2023-08-01T01:52:47;5.13;;;3.63;;
20170;SDS011;10245;51.344;6.620;2023-08-01T01:55:12;5.03;;;4.50;;
20170;SDS011;10245;51.344;6.620;2023-08-01T01:57:36;6.07;;;5.57;;
20170;SDS011;10245;51.344;6.620;2023-08-01T02:00:00;6.32;;;5.70;;
20170;SDS011;10245;51.344;6.620;2023-08-01T02:02:33;7.30;;;6.50;;
20170;SDS011;10245;51.344;6.620;2023-08-01T02:04:56;7.00;;;6.30;;
20170;SDS011;10245;51.344;6.620;2023-08-01T02:07:19;7.35;;;6.30;;
20170;SDS011;10245;51.344;6.620;2023-08-01T02:09:43;7.72;;;6.95;;
20170;SDS011;10245;51.344;6.620;2023-08-01T02:12:09;6.97;;;6.38;;
20170;SDS011;10245;51.344;6.620;2023-08-01T02:14:35;6.82;;;6.22;;
20170;SDS011;10245;51.344;6.620;2023-08-01T02:16:58;7.15;;;6.45;;
20170;SDS011;10245;51.344;6.620;2023-08-01T02:19:21;7.90;;;6.60;;
20170;SDS011;10245;51.344;6.620;2023-08-01T02:21:44;7.75;;;6.95;;
20170;SDS011;10245;51.344;6.620;2023-08-01T02:24:08;8.15;;;6.55;;
20170;SDS011;10245;51.344;6.620;2023-08-01T02:26:32;10.20;;;6.18;;
20170;SDS011;10245;51.344;6.620;2023-08-01T02:28:57;7.60;;;6.07;;
20170;SDS011;10245;51.344;6.620;2023-08-01T02:31:20;7.22;;;6.10;;
20170;SDS011;10245;51.344;6.620;2023-08-01T02:33:43;8.38;;;6.40;;
20170;SDS011;10245;51.344;6.620;2023-08-01T02:36:07;9.05;;;6.68;;
20170;SDS011;10245;51.344;6.620;2023-08-01T02:38:30;9.48;;;6.97;;
20170;SDS011;10245;51.344;6.620;2023-08-01T02:40:53;8.10;;;7.07;;
20170;SDS011;10245;51.344;6.620;2023-08-01T02:43:16;9.15;;;7.82;;
20170;SDS011;10245;51.344;6.620;2023-08-01T02:45:42;9.75;;;7.97;;
20170;SDS011;10245;51.344;6.620;2023-08-01T02:48:05;14.88;;;8.90;;
20170;SDS011;10245;51.344;6.620;2023-08-01T02:50:29;13.65;;;8.52;;
20170;SDS011;10245;51.344;6.620;2023-08-01T02:52:52;13.68;;;9.57;;
20170;SDS011;10245;51.344;6.620;2023-08-01T02:55:15;12.43;;;9.75;;
20170;SDS011;10245;51.344;6.620;2023-08-01T02:57:38;14.95;;;10.45;;
20170;SDS011;10245;51.344;6.620;2023-08-01T03:00:02;14.23;;;10.68;;
20170;SDS011;10245;51.344;6.620;2023-08-01T03:02:28;14.80;;;11.18;;
20170;SDS011;10245;51.344;6.620;2023-08-01T03:04:52;15.65;;;12.40;;
20170;SDS011;10245;51.344;6.620;2023-08-01T03:07:16;15.00;;;13.07;;
20170;SDS011;10245;51.344;6.620;2023-08-01T03:09:39;20.10;;;13.77;;
20170;SDS011;10245;51.344;6.620;2023-08-01T03:12:04;18.63;;;12.85;;
20170;SDS011;10245;51.344;6.620;2023-08-01T03:14:28;18.98;;;13.65;;
20170;SDS011;10245;51.344;6.620;2023-08-01T03:16:51;22.52;;;13.20;;
20170;SDS011;10245;51.344;6.620;2023-08-01T03:19:15;16.52;;;12.35;;
20170;SDS011;10245;51.344;6.620;2023-08-01T03:21:39;20.65;;;12.18;;
20170;SDS011;10245;51.344;6.620;2023-08-01T03:24:03;21.02;;;12.32;;
20170;SDS011;10245;51.344;6.620;2023-08-01T03:26:29;21.17;;;13.45;;
20170;SDS011;10245;51.344;6.620;2023-08-01T03:28:53;16.30;;;12.35;;
20170;SDS011;10245;51.344;6.620;2023-08-01T03:31:16;26.27;;;14.65;;
20170;SDS011;10245;51.344;6.620;2023-08-01T03:33:40;19.95;;;13.77;;
20170;SDS011;10245;51.344;6.620;2023-08-01T03:36:05;21.30;;;14.30;;
20170;SDS011;10245;51.344;6.620;2023-08-01T03:38:28;20.98;;;14.65;;
20170;SDS011;10245;51.344;6.620;2023-08-01T03:40:51;22.10;;;15.35;;
20170;SDS011;10245;51.344;6.620;2023-08-01T03:43:15;22.90;;;15.20;;
20170;SDS011;10245;51.344;6.620;2023-08-01T03:45:39;25.73;;;15.32;;
20170;SDS011;10245;51.344;6.620;2023-08-01T03:48:02;19.60;;;14.77;;
20170;SDS011;10245;51.344;6.620;2023-08-01T03:50:27;19.67;;;13.80;;
20170;SDS011;10245;51.344;6.620;2023-08-01T03:52:51;25.05;;;14.70;;
20170;SDS011;10245;51.344;6.620;2023-08-01T03:55:15;21.92;;;15.40;;
20170;SDS011;10245;51.344;6.620;2023-08-01T03:57:38;24.80;;;15.40;;
20170;SDS011;10245;51.344;6.620;2023-08-01T04:00:01;22.65;;;15.27;;
20170;SDS011;10245;51.344;6.620;2023-08-01T04:02:32;23.73;;;15.13;;
20170;SDS011;10245;51.344;6.620;2023-08-01T04:04:56;24.17;;;15.25;;
20170;SDS011;10245;51.344;6.620;2023-08-01T04:07:19;24.27;;;14.65;;
20170;SDS011;10245;51.344;6.620;2023-08-01T04:09:44;22.60;;;15.38;;
20170;SDS011;10245;51.344;6.620;2023-08-01T04:12:07;26.42;;;15.38;;
20170;SDS011;10245;51.344;6.620;2023-08-01T04:14:31;26.65;;;15.77;;
20170;SDS011;10245;51.344;6.620;2023-08-01T04:16:54;22.95;;;15.15;;
20170;SDS011;10245;51.344;6.620;2023-08-01T04:19:17;25.17;;;15.85;;
20170;SDS011;10245;51.344;6.620;2023-08-01T04:21:40;25.90;;;16.98;;
20170;SDS011;10245;51.344;6.620;2023-08-01T04:24:04;25.77;;;17.85;;
20170;SDS011;10245;51.344;6.620;2023-08-01T04:26:29;21.63;;;15.80;;
20170;SDS011;10245;51.344;6.620;2023-08-01T04:28:52;21.40;;;16.92;;
20170;SDS011;10245;51.344;6.620;2023-08-01T04:31:16;26.17;;;18.52;;
20170;SDS011;10245;51.344;6.620;2023-08-01T04:33:39;25.55;;;18.65;;
20170;SDS011;10245;51.344;6.620;2023-08-01T04:36:02;30.02;;;20.13;;
20170;SDS011;10245;51.344;6.620;2023-08-01T04:38:26;28.05;;;19.13;;
20170;SDS011;10245;51.344;6.620;2023-08-01T04:40:49;32.50;;;20.50;;
20170;SDS011;10245;51.344;6.620;2023-08-01T04:43:14;31.00;;;20.98;;
20170;SDS011;10245;51.344;6.620;2023-08-01T04:45:37;30.00;;;20.80;;
20170;SDS011;10245;51.344;6.620;2023-08-01T04:48:00;32.58;;;21.48;;
20170;SDS011;10245;51.344;6.620;2023-08-01T04:50:24;36.85;;;22.27;;
20170;SDS011;10245;51.344;6.620;2023-08-01T04:52:47;37.40;;;21.33;;
20170;SDS011;10245;51.344;6.620;2023-08-01T04:55:10;32.03;;;20.52;;
20170;SDS011;10245;51.344;6.620;2023-08-01T04:57:34;29.45;;;20.45;;
20170;SDS011;10245;51.344;6.620;2023-08-01T04:59:58;32.70;;;21.60;;
20170;SDS011;10245;51.344;6.620;2023-08-01T05:02:21;31.58;;;20.48;;
20170;SDS011;10245;51.344;6.620;2023-08-01T05:04:45;33.05;;;20.75;;
20170;SDS011;10245;51.344;6.620;2023-08-01T05:07:08;30.63;;;20.30;;
20170;SDS011;10245;51.344;6.620;2023-08-01T05:09:31;31.58;;;22.27;;
20170;SDS011;10245;51.344;6.620;2023-08-01T05:11:56;33.38;;;20.73;;
20170;SDS011;10245;51.344;6.620;2023-08-01T05:14:19;32.47;;;21.50;;
20170;SDS011;10245;51.344;6.620;2023-08-01T05:16:44;33.03;;;20.90;;
20170;SDS011;10245;51.344;6.620;2023-08-01T05:19:07;32.47;;;20.95;;
20170;SDS011;10245;51.344;6.620;2023-08-01T05:21:31;29.40;;;20.35;;
20170;SDS011;10245;51.344;6.620;2023-08-01T05:23:54;29.00;;;19.65;;
20170;SDS011;10245;51.344;6.620;2023-08-01T05:26:17;28.00;;;19.20;;
20170;SDS011;10245;51.344;6.620;2023-08-01T05:28:40;28.60;;;20.23;;
20170;SDS011;10245;51.344;6.620;2023-08-01T05:31:04;27.77;;;20.02;;
20170;SDS011;10245;51.344;6.620;2023-08-01T05:33:28;29.85;;;19.77;;
20170;SDS011;10245;51.344;6.620;2023-08-01T05:35:52;33.58;;;19.42;;
20170;SDS011;10245;51.344;6.620;2023-08-01T05:38:16;29.98;;;19.15;;
20170;SDS011;10245;51.344;6.620;2023-08-01T05:40:39;34.72;;;19.88;;
20170;SDS011;10245;51.344;6.620;2023-08-01T05:43:02;31.77;;;19.85;;
20170;SDS011;10245;51.344;6.620;2023-08-01T05:45:26;24.63;;;17.65;;
20170;SDS011;10245;51.344;6.620;2023-08-01T05:47:50;25.33;;;18.40;;
20170;SDS011;10245;51.344;6.620;2023-08-01T05:50:14;28.05;;;18.23;;
20170;SDS011;10245;51.344;6.620;2023-08-01T05:52:37;31.63;;;19.17;;
20170;SDS011;10245;51.344;6.620;2023-08-01T05:55:01;30.60;;;18.20;;
20170;SDS011;10245;51.344;6.620;2023-08-01T05:57:24;26.83;;;18.48;;
20170;SDS011;10245;51.344;6.620;2023-08-01T05:59:47;23.35;;;17.00;;
20170;SDS011;10245;51.344;6.620;2023-08-01T06:02:11;25.33;;;17.42;;
20170;SDS011;10245;51.344;6.620;2023-08-01T06:04:34;23.88;;;15.57;;
20170;SDS011;10245;51.344;6.620;2023-08-01T06:06:59;24.98;;;15.23;;
20170;SDS011;10245;51.344;6.620;2023-08-01T06:09:22;23.88;;;16.30;;
20170;SDS011;10245;51.344;6.620;2023-08-01T06:11:45;23.25;;;15.52;;
20170;SDS011;10245;51.344;6.620;2023-08-01T06:14:09;23.85;;;15.30;;
20170;SDS011;10245;51.344;6.620;2023-08-01T06:16:32;25.83;;;15.90;;
20170;SDS011;10245;51.344;6.620;2023-08-01T06:18:55;22.92;;;15.15;;
20170;SDS011;10245;51.344;6.620;2023-08-01T06:21:18;27.58;;;15.82;;
20170;SDS011;10245;51.344;6.620;2023-08-01T06:23:43;24.80;;;14.48;;
20170;SDS011;10245;51.344;6.620;2023-08-01T06:26:06;20.92;;;13.55;;
20170;SDS011;10245;51.344;6.620;2023-08-01T06:28:29;21.17;;;13.63;;
20170;SDS011;10245;51.344;6.620;2023-08-01T06:30:53;21.38;;;13.10;;
20170;SDS011;10245;51.344;6.620;2023-08-01T06:33:16;23.08;;;13.15;;
20170;SDS011;10245;51.344;6.620;2023-08-01T06:35:39;19.38;;;12.63;;
20170;SDS011;10245;51.344;6.620;2023-08-01T06:38:03;18.45;;;12.38;;
20170;SDS011;10245;51.344;6.620;2023-08-01T06:40:27;18.42;;;12.75;;
20170;SDS011;10245;51.344;6.620;2023-08-01T06:42:51;18.52;;;11.82;;
20170;SDS011;10245;51.344;6.620;2023-08-01T06:45:14;20.77;;;11.95;;
20170;SDS011;10245;51.344;6.620;2023-08-01T06:47:37;20.23;;;12.30;;
20170;SDS011;10245;51.344;6.620;2023-08-01T06:50:01;21.23;;;11.82;;
20170;SDS011;10245;51.344;6.620;2023-08-01T06:52:24;19.88;;;12.02;;
20170;SDS011;10245;51.344;6.620;2023-08-01T06:54:47;19.73;;;11.18;;
20170;SDS011;10245;51.344;6.620;2023-08-01T06:57:12;20.02;;;11.27;;
20170;SDS011;10245;51.344;6.620;2023-08-01T06:59:35;18.80;;;12.25;;
20170;SDS011;10245;51.344;6.620;2023-08-01T07:01:58;21.45;;;11.00;;
20170;SDS011;10245;51.344;6.620;2023-08-01T07:04:22;16.45;;;11.32;;
20170;SDS011;10245;51.344;6.620;2023-08-01T07:06:46;21.23;;;11.05;;
20170;SDS011;10245;51.344;6.620;2023-08-01T07:09:09;16.30;;;11.20;;
20170;SDS011;10245;51.344;6.620;2023-08-01T07:11:32;17.48;;;11.35;;
20170;SDS011;10245;51.344;6.620;2023-08-01T07:13:57;18.80;;;10.90;;
20170;SDS011;10245;51.344;6.620;2023-08-01T07:16:20;18.00;;;11.50;;
20170;SDS011;10245;51.344;6.620;2023-08-01T07:18:44;18.38;;;10.85;;
20170;SDS011;10245;51.344;6.620;2023-08-01T07:21:09;23.70;;;11.80;;
20170;SDS011;10245;51.344;6.620;2023-08-01T07:23:33;19.58;;;11.15;;
20170;SDS011;10245;51.344;6.620;2023-08-01T07:25:57;18.60;;;11.73;;
20170;SDS011;10245;51.344;6.620;2023-08-01T07:28:20;17.60;;;11.38;;
20170;SDS011;10245;51.344;6.620;2023-08-01T07:30:45;18.90;;;10.77;;
20170;SDS011;10245;51.344;6.620;2023-08-01T07:33:09;19.98;;;12.65;;
20170;SDS011;10245;51.344;6.620;2023-08-01T07:35:32;18.38;;;11.07;;
20170;SDS011;10245;51.344;6.620;2023-08-01T07:37:55;18.33;;;10.85;;
20170;SDS011;10245;51.344;6.620;2023-08-01T07:40:18;16.85;;;10.93;;
20170;SDS011;10245;51.344;6.620;2023-08-01T07:42:42;19.73;;;12.25;;
20170;SDS011;10245;51.344;6.620;2023-08-01T07:45:05;19.13;;;11.55;;
20170;SDS011;10245;51.344;6.620;2023-08-01T07:47:31;18.63;;;12.15;;
20170;SDS011;10245;51.344;6.620;2023-08-01T07:49:54;16.90;;;10.65;;
20170;SDS011;10245;51.344;6.620;2023-08-01T07:52:17;16.02;;;10.98;;
20170;SDS011;10245;51.344;6.620;2023-08-01T07:54:41;18.42;;;10.90;;
20170;SDS011;10245;51.344;6.620;2023-08-01T07:57:05;15.57;;;10.45;;
20170;SDS011;10245;51.344;6.620;2023-08-01T07:59:28;21.80;;;10.35;;
20170;SDS011;10245;51.344;6.620;2023-08-01T08:01:51;19.95;;;9.98;;
20170;SDS011;10245;51.344;6.620;2023-08-01T08:04:16;16.00;;;9.93;;
20170;SDS011;10245;51.344;6.620;2023-08-01T08:06:39;20.45;;;10.18;;
20170;SDS011;10245;51.344;6.620;2023-08-01T08:09:03;14.38;;;8.85;;
20170;SDS011;10245;51.344;6.620;2023-08-01T08:11:27;14.32;;;9.35;;
20170;SDS011;10245;51.344;6.620;2023-08-01T08:13:50;14.57;;;8.82;;
20170;SDS011;10245;51.344;6.620;2023-08-01T08:16:13;14.07;;;8.88;;
20170;SDS011;10245;51.344;6.620;2023-08-01T08:18:36;14.82;;;8.55;;
20170;SDS011;10245;51.344;6.620;2023-08-01T08:21:01;17.67;;;9.23;;
20170;SDS011;10245;51.344;6.620;2023-08-01T08:23:24;9.23;;;7.95;;
20170;SDS011;10245;51.344;6.620;2023-08-01T08:25:47;13.15;;;7.75;;
20170;SDS011;10245;51.344;6.620;2023-08-01T08:28:11;16.60;;;8.27;;
20170;SDS011;10245;51.344;6.620;2023-08-01T08:30:35;15.55;;;8.00;;
20170;SDS011;10245;51.344;6.620;2023-08-01T08:32:59;11.77;;;7.90;;
20170;SDS011;10245;51.344;6.620;2023-08-01T08:35:26;16.83;;;8.60;;
20170;SDS011;10245;51.344;6.620;2023-08-01T08:37:50;14.43;;;7.75;;
20170;SDS011;10245;51.344;6.620;2023-08-01T08:40:14;13.10;;;7.05;;
20170;SDS011;10245;51.344;6.620;2023-08-01T08:42:37;12.18;;;7.15;;
20170;SDS011;10245;51.344;6.620;2023-08-01T08:45:02;15.52;;;8.43;;
20170;SDS011;10245;51.344;6.620;2023-08-01T08:47:28;15.38;;;7.28;;
20170;SDS011;10245;51.344;6.620;2023-08-01T08:49:55;13.98;;;7.57;;
20170;SDS011;10245;51.344;6.620;2023-08-01T08:52:19;10.75;;;6.55;;
20170;SDS011;10245;51.344;6.620;2023-08-01T08:54:44;12.43;;;8.02;;
20170;SDS011;10245;51.344;6.620;2023-08-01T08:57:08;14.57;;;7.35;;
20170;SDS011;10245;51.344;6.620;2023-08-01T08:59:32;9.27;;;6.03;;
20170;SDS011;10245;51.344;6.620;2023-08-01T09:01:56;10.57;;;6.03;;
20170;SDS011;10245;51.344;6.620;2023-08-01T09:04:22;10.45;;;5.57;;
20170;SDS011;10245;51.344;6.620;2023-08-01T09:06:45;10.23;;;5.65;;
20170;SDS011;10245;51.344;6.620;2023-08-01T09:09:13;9.98;;;5.57;;
20170;SDS011;10245;51.344;6.620;2023-08-01T09:11:42;12.95;;;5.78;;
20170;SDS011;10245;51.344;6.620;2023-08-01T09:14:08;8.25;;;5.22;;
20170;SDS011;10245;51.344;6.620;2023-08-01T09:16:32;10.07;;;5.68;;
20170;SDS011;10245;51.344;6.620;2023-08-01T09:18:56;12.15;;;5.10;;
20170;SDS011;10245;51.344;6.620;2023-08-01T09:21:19;12.43;;;5.85;;
20170;SDS011;10245;51.344;6.620;2023-08-01T09:23:43;9.35;;;5.93;;
20170;SDS011;10245;51.344;6.620;2023-08-01T09:26:11;9.80;;;5.90;;
20170;SDS011;10245;51.344;6.620;2023-08-01T09:28:37;8.07;;;6.05;;
20170;SDS011;10245;51.344;6.620;2023-08-01T09:31:00;10.07;;;6.70;;
20170;SDS011;10245;51.344;6.620;2023-08-01T09:33:23;12.25;;;6.40;;
20170;SDS011;10245;51.344;6.620;2023-08-01T09:35:48;14.18;;;6.78;;
20170;SDS011;10245;51.344;6.620;2023-08-01T09:38:13;13.55;;;6.97;;
20170;SDS011;10245;51.344;6.620;2023-08-01T09:40:37;12.15;;;6.85;;
20170;SDS011;10245;51.344;6.620;2023-08-01T09:43:01;10.30;;;6.47;;
20170;SDS011;10245;51.344;6.620;2023-08-01T09:45:26;11.07;;;6.45;;
20170;SDS011;10245;51.344;6.620;2023-08-01T09:47:49;11.60;;;6.53;;
20170;SDS011;10245;51.344;6.620;2023-08-01T09:50:19;12.68;;;7.03;;
20170;SDS011;10245;51.344;6.620;2023-08-01T09:52:44;11.73;;;6.95;;
20170;SDS011;10245;51.344;6.620;2023-08-01T09:55:13;10.65;;;7.20;;
20170;SDS011;10245;51.344;6.620;2023-08-01T09:57:36;14.18;;;6.78;;
20170;SDS011;10245;51.344;6.620;2023-08-01T10:00:04;11.68;;;6.20;;
20170;SDS011;10245;51.344;6.620;2023-08-01T10:02:34;11.95;;;6.57;;
20170;SDS011;10245;51.344;6.620;2023-08-01T10:05:00;11.80;;;6.30;;
20170;SDS011;10245;51.344;6.620;2023-08-01T10:07:26;9.10;;;5.85;;
20170;SDS011;10245;51.344;6.620;2023-08-01T10:09:52;7.65;;;5.80;;
20170;SDS011;10245;51.344;6.620;2023-08-01T10:12:17;8.10;;;5.25;;
20170;SDS011;10245;51.344;6.620;2023-08-01T10:14:41;8.50;;;5.00;;
20170;SDS011;10245;51.344;6.620;2023-08-01T10:17:04;9.32;;;5.30;;
20170;SDS011;10245;51.344;6.620;2023-08-01T10:19:30;7.57;;;5.00;;
20170;SDS011;10245;51.344;6.620;2023-08-01T10:21:55;11.70;;;5.38;;
20170;SDS011;10245;51.344;6.620;2023-08-01T10:24:18;9.63;;;6.70;;
20170;SDS011;10245;51.344;6.620;2023-08-01T10:26:44;12.20;;;6.97;;
20170;SDS011;10245;51.344;6.620;2023-08-01T10:29:07;10.40;;;6.78;;
20170;SDS011;10245;51.344;6.620;2023-08-01T10:31:31;10.70;;;7.15;;
20170;SDS011;10245;51.344;6.620;2023-08-01T10:34:03;10.00;;;6.15;;
20170;SDS011;10245;51.344;6.620;2023-08-01T10:36:29;10.52;;;6.97;;
20170;SDS011;10245;51.344;6.620;2023-08-01T10:38:54;12.77;;;7.18;;
20170;SDS011;10245;51.344;6.620;2023-08-01T10:41:20;11.70;;;7.75;;
20170;SDS011;10245;51.344;6.620;2023-08-01T10:43:48;9.63;;;6.90;;
20170;SDS011;10245;51.344;6.620;2023-08-01T10:46:11;15.13;;;7.18;;
20170;SDS011;10245;51.344;6.620;2023-08-01T10:48:35;13.65;;;7.45;;
20170;SDS011;10245;51.344;6.620;2023-08-01T10:51:10;11.70;;;7.82;;
20170;SDS011;10245;51.344;6.620;2023-08-01T10:53:38;11.68;;;5.88;;
20170;SDS011;10245;51.344;6.620;2023-08-01T10:56:03;12.07;;;6.45;;
20170;SDS011;10245;51.344;6.620;2023-08-01T10:58:27;9.27;;;5.82;;
20170;SDS011;10245;51.344;6.620;2023-08-01T11:00:56;6.50;;;5.30;;
20170;SDS011;10245;51.344;6.620;2023-08-01T11:03:20;8.10;;;5.53;;
20170;SDS011;10245;51.344;6.620;2023-08-01T11:05:44;9.45;;;5.05;;
20170;SDS011;10245;51.344;6.620;2023-08-01T11:08:19;10.52;;;4.65;;
20170;SDS011;10245;51.344;6.620;2023-08-01T11:10:48;8.63;;;4.90;;
20170;SDS011;10245;51.344;6.620;2023-08-01T11:13:12;11.65;;;5.50;;
20170;SDS011;10245;51.344;6.620;2023-08-01T11:15:36;8.50;;;4.85;;
20170;SDS011;10245;51.344;6.620;2023-08-01T11:18:00;10.00;;;4.80;;
20170;SDS011;10245;51.344;6.620;2023-08-01T11:20:24;8.10;;;4.47;;
20170;SDS011;10245;51.344;6.620;2023-08-01T11:22:52;6.93;;;4.18;;
20170;SDS011;10245;51.344;6.620;2023-08-01T11:25:18;8.57;;;4.35;;
20170;SDS011;10245;51.344;6.620;2023-08-01T11:27:43;7.47;;;4.50;;
20170;SDS011;10245;51.344;6.620;2023-08-01T11:30:07;6.32;;;3.22;;
20170;SDS011;10245;51.344;6.620;2023-08-01T11:32:34;5.78;;;3.20;;
20170;SDS011;10245;51.344;6.620;2023-08-01T11:34:59;3.75;;;2.85;;
20170;SDS011;10245;51.344;6.620;2023-08-01T11:37:25;6.78;;;3.85;;
20170;SDS011;10245;51.344;6.620;2023-08-01T11:39:49;6.30;;;3.40;;
20170;SDS011;10245;51.344;6.620;2023-08-01T11:42:14;9.32;;;3.78;;
20170;SDS011;10245;51.344;6.620;2023-08-01T11:44:40;6.63;;;3.20;;
20170;SDS011;10245;51.344;6.620;2023-08-01T11:47:03;7.88;;;3.70;;
20170;SDS011;10245;51.344;6.620;2023-08-01T11:49:34;5.20;;;3.38;;
20170;SDS011;10245;51.344;6.620;2023-08-01T11:51:58;5.00;;;2.88;;
20170;SDS011;10245;51.344;6.620;2023-08-01T11:54:21;6.53;;;3.10;;
20170;SDS011;10245;51.344;6.620;2023-08-01T11:56:44;4.53;;;2.70;;
20170;SDS011;10245;51.344;6.620;2023-08-01T11:59:07;4.35;;;2.63;;
20170;SDS011;10245;51.344;6.620;2023-08-01T12:01:37;9.35;;;2.88;;
20170;SDS011;10245;51.344;6.620;2023-08-01T12:04:01;6.93;;;2.90;;
20170;SDS011;10245;51.344;6.620;2023-08-01T12:06:24;3.75;;;2.20;;
20170;SDS011;10245;51.344;6.620;2023-08-01T12:08:48;6.82;;;2.67;;
20170;SDS011;10245;51.344;6.620;2023-08-01T12:11:17;4.82;;;2.63;;
20170;SDS011;10245;51.344;6.620;2023-08-01T12:13:44;9.88;;;3.08;;
20170;SDS011;10245;51.344;6.620;2023-08-01T12:16:07;6.40;;;2.85;;
20170;SDS011;10245;51.344;6.620;2023-08-01T12:18:32;5.45;;;2.85;;
20170;SDS011;10245;51.344;6.620;2023-08-01T12:20:58;3.97;;;2.55;;
20170;SDS011;10245;51.344;6.620;2023-08-01T12:23:21;6.15;;;3.17;;
20170;SDS011;10245;51.344;6.620;2023-08-01T12:25:44;5.65;;;2.88;;
20170;SDS011;10245;51.344;6.620;2023-08-01T12:28:08;8.35;;;3.22;;
20170;SDS011;10245;51.344;6.620;2023-08-01T12:30:32;4.22;;;2.65;;
20170;SDS011;10245;51.344;6.620;2023-08-01T12:32:55;6.25;;;2.90;;
20170;SDS011;10245;51.344;6.620;2023-08-01T12:35:20;7.00;;;3.17;;
20170;SDS011;10245;51.344;6.620;2023-08-01T12:37:43;4.53;;;2.75;;
20170;SDS011;10245;51.344;6.620;2023-08-01T12:40:06;7.78;;;3.22;;
20170;SDS011;10245;51.344;6.620;2023-08-01T12:42:30;6.93;;;2.97;;
20170;SDS011;10245;51.344;6.620;2023-08-01T12:44:53;7.05;;;3.15;;
20170;SDS011;10245;51.344;6.620;2023-08-01T12:47:16;6.70;;;2.65;;
20170;SDS011;10245;51.344;6.620;2023-08-01T12:49:40;4.95;;;2.55;;
20170;SDS011;10245;51.344;6.620;2023-08-01T12:52:05;6.28;;;2.80;;
20170;SDS011;10245;51.344;6.620;2023-08-01T12:54:28;5.80;;;2.75;;
20170;SDS011;10245;51.344;6.620;2023-08-01T12:56:52;5.03;;;2.50;;
20170;SDS011;10245;51.344;6.620;2023-08-01T12:59:15;6.15;;;2.67;;
20170;SDS011;10245;51.344;6.620;2023-08-01T13:01:39;5.65;;;2.47;;
20170;SDS011;10245;51.344;6.620;2023-08-01T13:04:02;6.97;;;2.65;;
20170;SDS011;10245;51.344;6.620;2023-08-01T13:06:26;7.88;;;2.80;;
20170;SDS011;10245;51.344;6.620;2023-08-01T13:08:51;8.52;;;2.80;;
20170;SDS011;10245;51.344;6.620;2023-08-01T13:11:15;9.07;;;2.80;;
20170;SDS011;10245;51.344;6.620;2023-08-01T13:13:38;5.70;;;2.60;;
20170;SDS011;10245;51.344;6.620;2023-08-01T13:16:02;7.13;;;2.67;;
20170;SDS011;10245;51.344;6.620;2023-08-01T13:18:26;7.47;;;2.60;;
20170;SDS011;10245;51.344;6.620;2023-08-01T13:20:49;7.10;;;3.00;;
20170;SDS011;10245;51.344;6.620;2023-08-01T13:23:12;7.35;;;2.88;;
20170;SDS011;10245;51.344;6.620;2023-08-01T13:25:37;8.15;;;3.10;;
20170;SDS011;10245;51.344;6.620;2023-08-01T13:28:00;6.90;;;2.75;;
20170;SDS011;10245;51.344;6.620;2023-08-01T13:30:24;7.50;;;3.15;;
20170;SDS011;10245;51.344;6.620;2023-08-01T13:32:47;6.32;;;2.97;;
20170;SDS011;10245;51.344;6.620;2023-08-01T13:35:10;9.90;;;2.80;;
20170;SDS011;10245;51.344;6.620;2023-08-01T13:37:34;7.38;;;2.55;;
20170;SDS011;10245;51.344;6.620;2023-08-01T13:39:57;7.85;;;2.97;;
20170;SDS011;10245;51.344;6.620;2023-08-01T13:42:24;9.57;;;2.70;;
20170;SDS011;10245;51.344;6.620;2023-08-01T13:44:48;9.25;;;2.42;;
20170;SDS011;10245;51.344;6.620;2023-08-01T13:47:11;4.93;;;2.47;;
20170;SDS011;10245;51.344;6.620;2023-08-01T13:49:35;6.80;;;2.40;;
20170;SDS011;10245;51.344;6.620;2023-08-01T13:51:58;6.35;;;2.22;;
20170;SDS011;10245;51.344;6.620;2023-08-01T13:54:21;5.68;;;2.53;;
20170;SDS011;10245;51.344;6.620;2023-08-01T13:56:44;4.78;;;2.00;;
20170;SDS011;10245;51.344;6.620;2023-08-01T13:59:09;8.80;;;2.53;;
20170;SDS011;10245;51.344;6.620;2023-08-01T14:01:32;9.88;;;2.85;;
20170;SDS011;10245;51.344;6.620;2023-08-01T14:03:57;5.50;;;2.35;;
20170;SDS011;10245;51.344;6.620;2023-08-01T14:06:20;4.70;;;1.98;;
20170;SDS011;10245;51.344;6.620;2023-08-01T14:08:43;5.20;;;1.98;;
20170;SDS011;10245;51.344;6.620;2023-08-01T14:11:07;7.22;;;2.05;;
20170;SDS011;10245;51.344;6.620;2023-08-01T14:13:32;6.20;;;1.83;;
20170;SDS011;10245;51.344;6.620;2023-08-01T14:15:57;4.95;;;1.95;;
20170;SDS011;10245;51.344;6.620;2023-08-01T14:18:21;6.90;;;2.25;;
20170;SDS011;10245;51.344;6.620;2023-08-01T14:20:44;5.95;;;1.75;;
20170;SDS011;10245;51.344;6.620;2023-08-01T14:23:07;4.97;;;1.90;;
20170;SDS011;10245;51.344;6.620;2023-08-01T14:25:31;5.47;;;1.90;;
20170;SDS011;10245;51.344;6.620;2023-08-01T14:27:54;6.25;;;2.50;;
20170;SDS011;10245;51.344;6.620;2023-08-01T14:30:17;6.82;;;2.28;;